Time;durP1;ratioP1;P1;durP2;ratioP2;P2;SDS_P1;SDS_P2;PMS_P1;PMS_P2;Temp;Humidity;BMP_temperature;BMP_pressure;BME280_temperature;BME280_humidity;BME280_pressure;Samples;Min_cycle;Max_cycle;Signal;HPM_P1;HPM_P2
2022/11/17 00:01:57;;;;;;;16.95;10.27;;;9.70;99.90;;;;;;5072106;28;20424;-88
2022/11/17 00:04:29;;;;;;;21.73;11.40;;;9.60;99.90;;;;;;5088650;28;20036;-87
2022/11/17 00:06:57;;;;;;;18.50;10.00;;;9.60;99.90;;;;;;5090678;28;20086;-87
2022/11/17 00:09:23;;;;;;;19.63;10.50;;;9.60;99.90;;;;;;5091207;28;20048;-87
2022/11/17 00:14:35;;;;;;;20.25;10.38;;;9.60;99.90;;;;;;5090663;28;20413;-87
2022/11/17 00:17:19;;;;;;;22.48;11.90;;;9.60;99.90;;;;;;5073779;28;20036;-87
2022/11/17 00:22:32;;;;;;;17.35;10.40;;;9.60;99.90;;;;;;5090413;28;20048;-87
2022/11/17 00:24:58;;;;;;;19.42;9.98;;;9.60;99.90;;;;;;5090435;28;20097;-88
2022/11/17 00:27:23;;;;;;;19.98;10.70;;;9.60;99.90;;;;;;5090755;28;20043;-87
2022/11/17 00:29:49;;;;;;;20.33;9.88;;;9.60;99.90;;;;;;5073617;28;20081;-87
2022/11/17 00:35:02;;;;;;;18.08;9.55;;;9.60;99.90;;;;;;5090668;28;20085;-87
2022/11/17 00:37:31;;;;;;;19.17;10.02;;;9.60;99.90;;;;;;5073609;28;20089;-88
2022/11/17 00:39:57;;;;;;;18.48;9.40;;;9.60;99.90;;;;;;5090635;28;20055;-87
2022/11/17 00:42:22;;;;;;;18.02;9.90;;;9.60;99.90;;;;;;5089981;28;20044;-87
2022/11/17 00:44:48;;;;;;;18.58;10.48;;;9.60;99.90;;;;;;5073408;28;20127;-87
2022/11/17 00:47:14;;;;;;;19.40;10.05;;;9.60;99.90;;;;;;5089669;28;20119;-87
2022/11/17 00:49:39;;;;;;;19.33;11.02;;;9.60;99.90;;;;;;5090026;28;20036;-87
2022/11/17 00:52:05;;;;;;;16.98;9.57;;;9.60;99.90;;;;;;5089486;28;20382;-87
2022/11/17 00:54:30;;;;;;;18.52;9.30;;;9.60;99.90;;;;;;5072739;28;20564;-88
2022/11/17 00:56:56;;;;;;;19.95;9.85;;;9.60;99.90;;;;;;5089592;28;20035;-87
2022/11/17 00:59:21;;;;;;;17.73;9.40;;;9.60;99.90;;;;;;5089830;28;20081;-87
2022/11/17 01:01:47;;;;;;;16.95;10.63;;;9.60;99.90;;;;;;5077974;28;20044;-87
2022/11/17 01:04:14;;;;;;;16.48;9.82;;;9.60;99.90;;;;;;5077400;28;20416;-87
2022/11/17 01:06:45;;;;;;;18.90;9.30;;;9.60;99.90;;;;;;5097329;28;20044;-88
2022/11/17 01:09:22;;;;;;;18.65;9.77;;;9.60;99.90;;;;;;5080190;28;20417;-87
2022/11/17 01:11:50;;;;;;;20.83;9.57;;;9.60;99.90;;;;;;5087683;28;20040;-88
2022/11/17 01:14:18;;;;;;;18.00;9.50;;;9.60;99.90;;;;;;5089263;28;20036;-87
2022/11/17 01:16:44;;;;;;;16.65;9.73;;;9.60;99.90;;;;;;5112965;28;20041;-87
2022/11/17 01:19:12;;;;;;;14.45;8.70;;;9.60;99.90;;;;;;5072740;28;20028;-88
2022/11/17 01:21:38;;;;;;;16.20;8.88;;;9.60;99.90;;;;;;5089822;28;20047;-87
2022/11/17 01:24:04;;;;;;;17.77;9.40;;;9.60;99.90;;;;;;5088968;28;20035;-87
2022/11/17 01:26:33;;;;;;;16.92;9.18;;;9.60;99.90;;;;;;5074362;28;20123;-87
2022/11/17 01:29:00;;;;;;;15.35;8.65;;;9.60;99.90;;;;;;5069740;28;20121;-87
2022/11/17 01:31:28;;;;;;;17.60;8.65;;;9.60;99.90;;;;;;5103196;28;20051;-87
2022/11/17 01:33:54;;;;;;;16.70;8.23;;;9.50;99.90;;;;;;5086421;28;20383;-88
2022/11/17 01:36:29;;;;;;;15.73;8.18;;;9.60;99.90;;;;;;5069648;28;20059;-87
2022/11/17 01:38:55;;;;;;;14.48;8.35;;;9.60;99.90;;;;;;5086394;28;20490;-87
2022/11/17 01:41:23;;;;;;;19.83;8.77;;;9.50;99.90;;;;;;5086509;28;20047;-87
2022/11/17 01:43:53;;;;;;;16.75;8.38;;;9.60;99.90;;;;;;5082713;28;20040;-87
2022/11/17 01:46:38;;;;;;;15.23;7.82;;;9.60;99.90;;;;;;5089602;28;20047;-87
2022/11/17 01:49:24;;;;;;;14.05;7.78;;;9.60;99.90;;;;;;5089495;28;20047;-87
2022/11/17 01:51:58;;;;;;;15.00;8.35;;;9.50;99.90;;;;;;5073061;28;20119;-87
2022/11/17 01:54:28;;;;;;;15.65;8.63;;;9.60;99.90;;;;;;5089162;28;20047;-87
2022/11/17 01:57:01;;;;;;;13.40;7.65;;;9.60;99.90;;;;;;5072833;28;20051;-87
2022/11/17 01:59:33;;;;;;;14.70;8.07;;;9.60;99.90;;;;;;5091509;28;20449;-88
2022/11/17 02:01:59;;;;;;;15.83;7.97;;;9.60;99.90;;;;;;5093215;28;20043;-87
2022/11/17 02:04:32;;;;;;;16.60;8.45;;;9.60;99.90;;;;;;5093116;28;20039;-88
2022/11/17 02:07:13;;;;;;;15.98;8.10;;;9.60;99.90;;;;;;5076431;28;20044;-88
2022/11/17 02:09:39;;;;;;;15.75;7.03;;;9.60;99.90;;;;;;5076215;28;20117;-88
2022/11/17 02:12:08;;;;;;;15.65;8.70;;;9.60;99.90;;;;;;5092700;28;20512;-88
2022/11/17 02:14:35;;;;;;;14.25;7.57;;;9.60;99.90;;;;;;5076030;28;20089;-88
2022/11/17 02:17:02;;;;;;;15.13;7.35;;;9.60;99.90;;;;;;5076218;28;20040;-88
2022/11/17 02:19:38;;;;;;;16.40;8.43;;;9.60;99.90;;;;;;5076373;28;20040;-87
2022/11/17 02:22:42;;;;;;;16.00;7.63;;;9.60;99.90;;;;;;5092993;28;20037;-87
2022/11/17 02:25:19;;;;;;;18.33;8.15;;;9.60;99.90;;;;;;5076191;28;20435;-87
2022/11/17 02:28:06;;;;;;;12.70;7.00;;;9.60;99.90;;;;;;5093003;28;20052;-87
2022/11/17 02:31:03;;;;;;;13.15;6.93;;;9.60;99.90;;;;;;5092379;28;20048;-87
2022/11/17 02:33:58;;;;;;;26.00;9.13;;;9.50;99.90;;;;;;5092636;28;20413;-88
2022/11/17 02:37:00;;;;;;;13.98;6.72;;;9.60;99.90;;;;;;5092742;28;20098;-88
2022/11/17 02:39:50;;;;;;;14.32;7.57;;;9.50;99.90;;;;;;5092836;28;20548;-88
2022/11/17 02:44:02;;;;;;;13.35;7.78;;;9.50;99.90;;;;;;5092247;28;20039;-87
2022/11/17 02:45:13;;;;;;;;;;;9.50;99.90;;;;;;5092570;28;20051;-88
2022/11/17 02:47:40;;;;;;;16.40;7.68;;;9.50;99.90;;;;;;5092335;28;19920;-88
2022/11/17 02:50:08;;;;;;;15.70;8.52;;;9.50;99.90;;;;;;5075562;28;20044;-87
2022/11/17 02:52:34;;;;;;;14.55;7.78;;;9.50;99.90;;;;;;5074904;28;20080;-87
2022/11/17 02:55:01;;;;;;;16.67;8.02;;;9.50;99.90;;;;;;5075371;28;20086;-87
2022/11/17 02:57:31;;;;;;;14.30;8.30;;;9.50;99.90;;;;;;5092257;28;20399;-87
2022/11/17 03:00:18;;;;;;;13.02;7.50;;;9.50;99.90;;;;;;5092010;28;20497;-87
2022/11/17 03:03:09;;;;;;;13.65;7.35;;;9.50;99.90;;;;;;5091882;28;20044;-88
2022/11/17 03:05:57;;;;;;;14.27;7.63;;;9.40;99.90;;;;;;5092319;28;20468;-87
2022/11/17 03:08:49;;;;;;;16.05;7.60;;;9.40;99.90;;;;;;5075157;28;20048;-87
2022/11/17 03:11:15;;;;;;;15.45;8.52;;;9.40;99.90;;;;;;5061064;28;20571;-87
2022/11/17 03:14:05;;;;;;;15.50;7.65;;;9.40;99.90;;;;;;5091898;28;20035;-87
2022/11/17 03:16:49;;;;;;;14.45;7.90;;;9.40;99.90;;;;;;5091925;28;20447;-87
2022/11/17 03:19:31;;;;;;;13.45;7.80;;;9.40;99.90;;;;;;5092073;28;20496;-87
2022/11/17 03:22:21;;;;;;;13.18;7.72;;;9.30;99.90;;;;;;5075061;28;20047;-87
2022/11/17 03:24:51;;;;;;;15.80;8.32;;;9.30;99.90;;;;;;5079680;28;20087;-87
2022/11/17 03:27:24;;;;;;;15.30;8.18;;;9.30;99.90;;;;;;5074728;28;20040;-87
2022/11/17 03:29:55;;;;;;;14.30;7.45;;;9.30;99.90;;;;;;5091670;28;20048;-88
2022/11/17 03:32:22;;;;;;;17.35;8.98;;;9.30;99.90;;;;;;5090842;28;20093;-87
2022/11/17 03:34:55;;;;;;;15.23;8.63;;;9.30;99.90;;;;;;5074883;28;20397;-87
2022/11/17 03:37:22;;;;;;;16.45;9.00;;;9.30;99.90;;;;;;5074740;28;20109;-87
2022/11/17 03:39:56;;;;;;;15.45;8.07;;;9.30;99.90;;;;;;5074618;28;20036;-87
2022/11/17 03:42:26;;;;;;;15.73;7.22;;;9.30;99.90;;;;;;5074000;28;20077;-87
2022/11/17 03:44:55;;;;;;;15.07;7.28;;;9.20;99.90;;;;;;5074625;28;20040;-87
2022/11/17 03:47:24;;;;;;;12.32;6.95;;;9.30;99.90;;;;;;5074647;28;20398;-87
2022/11/17 03:50:20;;;;;;;16.10;7.57;;;9.30;99.90;;;;;;5091104;28;20512;-88
2022/11/17 03:52:46;;;;;;;13.20;6.95;;;9.20;99.90;;;;;;5073834;28;20062;-88
2022/11/17 03:55:13;;;;;;;13.30;6.82;;;9.20;99.90;;;;;;5091070;28;20036;-88
2022/11/17 03:57:55;;;;;;;14.90;7.68;;;9.20;99.90;;;;;;5074411;28;20498;-88
2022/11/17 04:00:20;;;;;;;10.20;5.43;;;9.20;99.90;;;;;;5090701;28;20087;-88
2022/11/17 04:02:48;;;;;;;13.35;7.25;;;9.20;99.90;;;;;;5073846;28;20071;-87
2022/11/17 04:05:16;;;;;;;12.02;6.25;;;9.20;99.90;;;;;;5074175;28;20516;-88
2022/11/17 04:07:44;;;;;;;13.75;6.95;;;9.20;99.90;;;;;;5074243;28;20050;-88
2022/11/17 04:10:15;;;;;;;15.43;6.55;;;9.20;99.90;;;;;;5091139;28;20054;-88
2022/11/17 04:18:10;;;;;;;11.43;5.93;;;9.20;99.90;;;;;;5090757;28;20066;-88
2022/11/17 04:20:35;;;;;;;9.93;5.15;;;9.20;99.90;;;;;;5090470;28;20471;-88
2022/11/17 04:23:07;;;;;;;11.63;6.32;;;9.20;99.90;;;;;;5089850;28;20039;-88
2022/11/17 04:28:36;;;;;;;11.55;6.10;;;9.20;99.90;;;;;;5090595;28;20048;-88
2022/11/17 04:31:14;;;;;;;11.43;5.43;;;9.10;99.90;;;;;;5073444;28;20044;-88
2022/11/17 04:33:42;;;;;;;11.50;6.70;;;9.10;99.90;;;;;;5071323;28;20106;-88
2022/11/17 04:36:09;;;;;;;13.80;6.78;;;9.10;99.90;;;;;;5090357;28;20043;-88
2022/11/17 04:38:34;;;;;;;12.23;6.55;;;9.10;99.90;;;;;;5090024;28;20040;-87
2022/11/17 04:43:50;;;;;;;11.18;5.95;;;9.10;99.90;;;;;;5089973;28;20040;-88
2022/11/17 04:46:16;;;;;;;11.77;5.95;;;9.00;99.90;;;;;;5090251;28;20036;-88
2022/11/17 04:48:43;;;;;;;12.55;5.65;;;9.10;99.90;;;;;;5073350;28;20039;-88
2022/11/17 04:51:09;;;;;;;10.70;6.00;;;9.00;99.90;;;;;;5073334;28;20043;-88
2022/11/17 04:53:35;;;;;;;13.07;6.22;;;9.00;99.90;;;;;;5073005;28;20040;-88
2022/11/17 04:56:02;;;;;;;10.38;5.55;;;9.00;99.90;;;;;;5090139;28;20059;-88
2022/11/17 04:58:28;;;;;;;10.70;5.53;;;9.00;99.90;;;;;;5090255;28;20047;-88
2022/11/17 05:00:54;;;;;;;11.02;5.65;;;9.00;99.90;;;;;;5073397;28;20040;-88
2022/11/17 05:03:19;;;;;;;9.90;5.43;;;9.00;99.90;;;;;;5073201;28;20082;-87
2022/11/17 05:05:46;;;;;;;9.38;4.80;;;9.00;99.90;;;;;;5090312;28;20131;-88
2022/11/17 05:08:12;;;;;;;10.00;4.88;;;9.00;99.90;;;;;;5090091;28;20048;-88
2022/11/17 05:13:23;;;;;;;10.52;4.65;;;8.90;99.90;;;;;;5089551;28;20131;-87
2022/11/17 05:18:39;;;;;;;11.45;5.20;;;8.90;99.90;;;;;;5089894;28;20043;-87
2022/11/17 05:21:07;;;;;;;8.52;4.57;;;8.80;99.90;;;;;;5089958;28;20036;-87
2022/11/17 05:26:17;;;;;;;8.98;4.53;;;8.80;99.90;;;;;;5089708;28;20040;-87
2022/11/17 05:28:42;;;;;;;8.35;4.30;;;8.80;99.90;;;;;;5089931;28;20036;-87
2022/11/17 05:31:08;;;;;;;12.48;5.25;;;8.70;99.90;;;;;;5073119;28;20089;-88
2022/11/17 05:33:34;;;;;;;9.68;4.90;;;8.70;99.90;;;;;;5073121;28;20035;-87
2022/11/17 05:35:59;;;;;;;9.40;4.95;;;8.70;99.90;;;;;;5093560;28;20036;-88
2022/11/17 05:38:25;;;;;;;9.93;5.20;;;8.70;99.90;;;;;;5093604;28;20114;-87
2022/11/17 05:40:50;;;;;;;10.90;5.38;;;8.70;99.90;;;;;;5093694;28;20458;-88
2022/11/17 05:43:16;;;;;;;10.35;6.15;;;8.70;99.90;;;;;;5093321;28;20036;-88
2022/11/17 05:45:44;;;;;;;10.27;5.75;;;8.60;99.90;;;;;;5076663;28;20040;-87
2022/11/17 05:48:10;;;;;;;15.25;7.18;;;8.60;99.90;;;;;;5076860;28;20408;-88
2022/11/17 05:50:35;;;;;;;11.07;6.03;;;8.60;99.90;;;;;;5076537;28;20099;-88
2022/11/17 05:53:01;;;;;;;11.75;5.65;;;8.60;99.90;;;;;;5093018;28;20048;-87
2022/11/17 05:55:26;;;;;;;10.85;5.15;;;8.60;99.90;;;;;;5076420;28;20447;-88
2022/11/17 05:57:55;;;;;;;10.90;5.40;;;8.60;99.90;;;;;;5076471;28;20040;-87
2022/11/17 06:00:20;;;;;;;11.40;6.15;;;8.60;99.90;;;;;;5093100;28;20082;-87
2022/11/17 06:02:52;;;;;;;12.40;6.70;;;8.50;99.90;;;;;;5092798;28;20071;-87
2022/11/17 06:05:18;;;;;;;12.10;5.45;;;8.60;99.90;;;;;;5092772;28;20093;-87
2022/11/17 06:07:43;;;;;;;12.32;5.97;;;8.50;99.90;;;;;;5093091;28;20036;-87
2022/11/17 06:10:09;;;;;;;12.68;6.53;;;8.50;99.90;;;;;;5092961;28;20097;-87
2022/11/17 06:12:34;;;;;;;9.88;5.32;;;8.40;99.90;;;;;;5075759;28;20055;-87
2022/11/17 06:15:00;;;;;;;11.18;5.25;;;8.50;99.90;;;;;;5076019;28;20079;-86
2022/11/17 06:17:39;;;;;;;10.77;4.55;;;8.50;99.90;;;;;;5092966;28;20069;-86
2022/11/17 06:20:12;;;;;;;9.07;4.43;;;8.40;99.90;;;;;;5092974;28;20092;-87
2022/11/17 06:22:38;;;;;;;10.63;5.22;;;8.50;99.90;;;;;;5092878;28;20055;-86
2022/11/17 06:25:07;;;;;;;7.13;3.63;;;8.40;99.90;;;;;;5092959;28;20032;-86
2022/11/17 06:27:34;;;;;;;8.45;4.15;;;8.40;99.90;;;;;;5075854;28;20044;-87
2022/11/17 06:30:02;;;;;;;8.68;4.28;;;8.40;99.90;;;;;;5076144;28;20056;-87
2022/11/17 06:32:28;;;;;;;8.20;3.92;;;8.40;99.90;;;;;;5092122;28;20044;-87
2022/11/17 06:34:54;;;;;;;9.32;4.30;;;8.40;99.90;;;;;;5076038;28;20055;-87
2022/11/17 06:37:19;;;;;;;9.02;3.90;;;8.40;99.90;;;;;;5092831;28;20043;-87
2022/11/17 06:39:45;;;;;;;9.52;4.47;;;8.40;99.90;;;;;;5092877;28;20560;-87
2022/11/17 06:42:10;;;;;;;9.27;4.53;;;8.40;99.90;;;;;;5092151;28;20536;-87
2022/11/17 06:44:36;;;;;;;10.13;4.20;;;8.30;99.90;;;;;;5092262;28;20043;-87
2022/11/17 06:47:02;;;;;;;9.07;3.70;;;8.30;99.90;;;;;;5092531;28;20508;-89
2022/11/17 06:49:28;;;;;;;9.88;4.03;;;8.30;99.90;;;;;;5092417;28;20097;-87
2022/11/17 06:51:54;;;;;;;8.43;4.13;;;8.30;99.90;;;;;;5092235;28;20040;-86
2022/11/17 06:54:19;;;;;;;8.95;4.05;;;8.30;99.90;;;;;;5091695;28;20086;-85
2022/11/17 06:56:45;;;;;;;7.88;3.92;;;8.30;99.90;;;;;;5092315;28;20036;-87
2022/11/17 06:59:11;;;;;;;8.65;4.05;;;8.30;99.90;;;;;;5075311;28;20602;-87
2022/11/17 07:01:36;;;;;;;8.65;4.32;;;8.30;99.90;;;;;;5091882;28;20075;-87
2022/11/17 07:04:02;;;;;;;8.98;4.30;;;8.30;99.90;;;;;;5092038;28;20035;-87
2022/11/17 07:06:28;;;;;;;9.32;4.40;;;8.30;99.90;;;;;;5091776;28;20497;-87
2022/11/17 07:08:53;;;;;;;10.13;4.55;;;8.30;99.90;;;;;;5092351;28;20043;-87
2022/11/17 07:11:19;;;;;;;7.97;3.47;;;8.30;99.90;;;;;;5074964;28;20040;-87
2022/11/17 07:13:45;;;;;;;7.55;3.72;;;8.30;99.90;;;;;;5091629;28;20035;-87
2022/11/17 07:16:13;;;;;;;7.90;3.90;;;8.30;99.90;;;;;;5091648;28;20036;-87
2022/11/17 07:18:42;;;;;;;9.00;3.85;;;8.20;99.90;;;;;;5108728;28;20047;-86
2022/11/17 07:21:12;;;;;;;9.05;4.05;;;8.30;99.90;;;;;;5091618;28;20044;-86
2022/11/17 07:23:39;;;;;;;8.00;3.80;;;8.20;99.90;;;;;;5090749;28;20036;-87
2022/11/17 07:26:05;;;;;;;8.48;3.47;;;8.20;99.90;;;;;;5090852;28;20040;-89
2022/11/17 07:28:32;;;;;;;7.88;3.72;;;8.20;99.90;;;;;;5091036;28;20580;-89
2022/11/17 07:31:02;;;;;;;7.57;3.88;;;8.20;99.90;;;;;;5108638;28;20093;-89
2022/11/17 07:33:28;;;;;;;8.25;3.55;;;8.20;99.90;;;;;;5074367;28;20509;-87
2022/11/17 07:35:54;;;;;;;8.30;3.85;;;8.20;99.90;;;;;;5091682;28;20043;-87
2022/11/17 07:38:20;;;;;;;7.80;3.25;;;8.20;99.90;;;;;;5074420;28;20078;-87
2022/11/17 07:40:46;;;;;;;8.73;4.32;;;8.20;99.90;;;;;;5091126;28;20071;-87
2022/11/17 07:43:11;;;;;;;9.57;4.40;;;8.20;99.90;;;;;;5080078;28;20090;-86
2022/11/17 07:45:37;;;;;;;9.52;4.13;;;8.20;99.90;;;;;;5058668;28;20044;-88
2022/11/17 07:48:05;;;;;;;7.53;3.58;;;8.20;99.90;;;;;;5110038;27;20036;-87
2022/11/17 07:50:31;;;;;;;7.78;3.53;;;8.20;99.90;;;;;;5082060;28;20044;-86
2022/11/17 07:52:57;;;;;;;7.47;3.75;;;8.20;99.90;;;;;;5107728;28;20044;-87
2022/11/17 07:55:23;;;;;;;8.82;4.60;;;8.20;99.90;;;;;;5090952;28;20044;-88
2022/11/17 07:57:57;;;;;;;9.35;4.57;;;8.20;99.90;;;;;;5090572;28;20123;-87
2022/11/17 08:00:23;;;;;;;9.18;4.05;;;8.20;99.90;;;;;;5108015;27;20044;-87
2022/11/17 08:02:49;;;;;;;9.57;4.90;;;8.20;99.90;;;;;;5088186;28;20127;-87
2022/11/17 08:05:17;;;;;;;8.95;4.10;;;8.20;99.90;;;;;;5089271;28;20147;-87
2022/11/17 08:07:44;;;;;;;8.20;4.22;;;8.20;99.90;;;;;;5090493;28;20054;-87
2022/11/17 08:10:10;;;;;;;8.70;4.28;;;8.20;99.90;;;;;;5090213;28;20847;-87
2022/11/17 08:12:35;;;;;;;10.05;4.40;;;8.20;99.90;;;;;;5089820;28;20052;-87
2022/11/17 08:15:01;;;;;;;9.45;4.55;;;8.20;99.90;;;;;;5090410;28;20042;-87
2022/11/17 08:17:28;;;;;;;8.10;4.22;;;8.20;99.90;;;;;;5090383;28;20079;-86
2022/11/17 08:19:53;;;;;;;10.68;4.63;;;8.20;99.90;;;;;;5090497;28;20036;-87
2022/11/17 08:22:19;;;;;;;9.18;4.25;;;8.20;99.90;;;;;;5089882;28;20043;-87
2022/11/17 08:24:44;;;;;;;9.35;4.43;;;8.20;99.90;;;;;;5089991;28;20035;-87
2022/11/17 08:27:10;;;;;;;9.55;4.82;;;8.20;99.90;;;;;;5090222;28;20036;-87
2022/11/17 08:29:36;;;;;;;8.35;4.30;;;8.20;99.90;;;;;;5090098;28;20042;-87
2022/11/17 08:32:01;;;;;;;8.48;4.45;;;8.20;99.90;;;;;;5089832;28;20515;-89
2022/11/17 08:34:27;;;;;;;9.18;4.30;;;8.20;99.90;;;;;;5089849;28;20119;-87
2022/11/17 08:36:52;;;;;;;8.43;4.38;;;8.20;99.90;;;;;;5090175;28;20109;-87
2022/11/17 08:39:18;;;;;;;8.85;4.65;;;8.20;99.90;;;;;;5089635;28;20477;-87
2022/11/17 08:41:43;;;;;;;7.45;3.60;;;8.20;99.90;;;;;;5089751;28;20054;-87
2022/11/17 08:44:09;;;;;;;9.88;4.47;;;8.20;99.90;;;;;;5089607;28;20497;-87
2022/11/17 08:46:34;;;;;;;8.50;4.63;;;8.20;99.90;;;;;;5072796;28;20040;-87
2022/11/17 08:49:00;;;;;;;8.00;4.13;;;8.20;99.90;;;;;;5073164;28;20050;-86
2022/11/17 08:51:27;;;;;;;9.55;5.57;;;8.30;99.90;;;;;;5072727;28;20123;-86
2022/11/17 08:53:53;;;;;;;8.90;4.38;;;8.30;99.90;;;;;;5089322;28;20541;-87
2022/11/17 08:56:19;;;;;;;9.55;4.45;;;8.30;99.90;;;;;;5089660;28;20071;-86
2022/11/17 08:58:44;;;;;;;8.93;3.85;;;8.30;99.90;;;;;;5089627;28;20032;-87
2022/11/17 09:01:14;;;;;;;11.32;4.50;;;8.30;99.90;;;;;;5089802;28;20035;-87
2022/11/17 09:03:42;;;;;;;8.30;3.72;;;8.30;99.90;;;;;;5089482;28;20435;-87
2022/11/17 09:06:09;;;;;;;8.10;4.05;;;8.30;99.90;;;;;;5089929;28;20040;-87
2022/11/17 09:08:35;;;;;;;7.30;3.47;;;8.30;99.90;;;;;;5091964;28;20040;-87
2022/11/17 09:11:09;;;;;;;7.78;3.83;;;8.30;99.90;;;;;;5093885;28;20074;-86
2022/11/17 09:13:36;;;;;;;9.60;4.22;;;8.30;99.90;;;;;;5093399;28;20036;-86
2022/11/17 09:16:07;;;;;;;8.85;4.32;;;8.30;99.90;;;;;;5093590;28;20036;-87
2022/11/17 09:18:33;;;;;;;9.98;4.10;;;8.40;99.90;;;;;;5093663;28;20048;-86
2022/11/17 09:21:05;;;;;;;9.40;3.90;;;8.40;99.90;;;;;;5076233;28;20127;-86
2022/11/17 09:23:31;;;;;;;8.10;3.80;;;8.40;99.90;;;;;;5076430;28;20040;-86
2022/11/17 09:25:57;;;;;;;8.13;3.80;;;8.40;99.90;;;;;;5093255;28;20044;-86
2022/11/17 09:28:26;;;;;;;7.18;3.55;;;8.40;99.90;;;;;;5093797;28;20055;-87
2022/11/17 09:30:52;;;;;;;8.05;3.53;;;8.40;99.90;;;;;;5076210;28;20659;-86
2022/11/17 09:33:18;;;;;;;8.82;3.42;;;8.40;99.90;;;;;;5092906;28;20092;-87
2022/11/17 09:35:44;;;;;;;7.70;3.58;;;8.40;99.90;;;;;;5092573;28;20122;-87
2022/11/17 09:38:10;;;;;;;9.48;3.65;;;8.40;99.90;;;;;;5092793;28;20036;-87
2022/11/17 09:40:38;;;;;;;7.07;3.08;;;8.40;99.90;;;;;;5098870;28;20032;-87
2022/11/17 09:43:15;;;;;;;7.10;2.95;;;8.50;99.90;;;;;;5092047;28;20112;-87
2022/11/17 09:45:45;;;;;;;7.72;3.72;;;8.40;99.90;;;;;;5090432;28;20121;-87
2022/11/17 09:48:19;;;;;;;8.57;3.42;;;8.50;99.90;;;;;;5085952;28;20520;-86
2022/11/17 09:50:45;;;;;;;7.72;3.33;;;8.50;99.90;;;;;;5092895;28;20059;-87
2022/11/17 09:53:14;;;;;;;6.70;3.10;;;8.50;99.90;;;;;;5092898;28;20052;-87
2022/11/17 09:55:42;;;;;;;7.93;3.30;;;8.50;99.90;;;;;;5095640;28;20122;-86
2022/11/17 09:58:28;;;;;;;7.05;3.08;;;8.50;99.90;;;;;;5111638;28;20120;-87
2022/11/17 10:00:55;;;;;;;7.32;3.20;;;8.60;99.90;;;;;;5112333;28;20047;-87
2022/11/17 10:03:34;;;;;;;7.10;3.47;;;8.60;99.90;;;;;;5095962;28;20071;-87
2022/11/17 10:06:04;;;;;;;8.43;3.25;;;8.60;99.90;;;;;;5095236;28;20032;-86
2022/11/17 10:08:45;;;;;;;7.43;3.10;;;8.60;99.90;;;;;;5112510;28;20116;-87
2022/11/17 10:11:31;;;;;;;6.45;2.67;;;8.60;99.90;;;;;;5110708;28;20115;-87
2022/11/17 10:14:16;;;;;;;7.03;2.85;;;8.60;99.90;;;;;;5110381;28;20104;-87
2022/11/17 10:16:52;;;;;;;7.63;3.20;;;8.60;99.90;;;;;;5091274;28;20035;-87
2022/11/17 10:19:20;;;;;;;6.72;3.30;;;8.60;99.90;;;;;;5074850;28;20490;-87
2022/11/17 10:22:24;;;;;;;6.80;3.40;;;8.70;99.90;;;;;;5083146;28;20039;-88
2022/11/17 10:24:54;;;;;;;7.43;3.45;;;8.70;99.90;;;;;;5070934;28;20039;-87
2022/11/17 10:27:32;;;;;;;7.65;3.38;;;8.70;99.90;;;;;;5088314;28;20112;-87
2022/11/17 10:30:22;;;;;;;8.90;3.70;;;8.80;99.90;;;;;;5093724;28;20044;-87
2022/11/17 10:32:50;;;;;;;7.53;3.95;;;8.80;99.90;;;;;;5055145;28;20041;-87
2022/11/17 10:35:23;;;;;;;7.72;3.75;;;8.80;99.90;;;;;;5117974;27;20039;-87
2022/11/17 10:37:56;;;;;;;7.82;3.80;;;8.90;99.90;;;;;;5106602;28;20036;-87
2022/11/17 10:40:25;;;;;;;7.43;3.63;;;8.90;99.90;;;;;;5108729;28;20118;-87
2022/11/17 10:43:03;;;;;;;7.90;3.67;;;8.90;99.90;;;;;;5076149;28;20040;-87
2022/11/17 10:45:29;;;;;;;8.68;3.67;;;8.90;99.90;;;;;;5112468;28;20039;-87
2022/11/17 10:48:27;;;;;;;7.45;3.08;;;8.90;99.90;;;;;;5112376;28;20131;-87
2022/11/17 10:50:58;;;;;;;7.88;3.17;;;8.90;99.90;;;;;;5082066;28;20073;-87
2022/11/17 10:53:31;;;;;;;6.18;2.80;;;8.90;99.90;;;;;;5111428;28;20044;-87
2022/11/17 10:56:04;;;;;;;6.30;3.03;;;8.80;99.90;;;;;;5110838;28;20036;-87
2022/11/17 10:58:49;;;;;;;6.80;3.20;;;8.80;99.90;;;;;;5112037;28;20159;-88
2022/11/17 11:01:36;;;;;;;6.35;2.70;;;8.80;99.90;;;;;;5100642;28;20065;-87
2022/11/17 11:04:05;;;;;;;6.25;2.65;;;8.90;99.90;;;;;;5111776;28;20047;-87
2022/11/17 11:06:32;;;;;;;6.68;2.63;;;8.90;99.90;;;;;;5095387;28;20051;-87
2022/11/17 11:09:09;;;;;;;6.38;2.95;;;8.90;99.90;;;;;;5111373;28;20040;-87
2022/11/17 11:11:45;;;;;;;5.82;2.60;;;8.90;99.90;;;;;;5091047;28;20398;-87
2022/11/17 11:14:18;;;;;;;6.32;2.72;;;8.90;99.90;;;;;;5119053;27;20409;-87
2022/11/17 11:16:49;;;;;;;7.43;2.72;;;8.90;99.90;;;;;;5088891;28;20040;-87
2022/11/17 11:19:17;;;;;;;7.15;2.92;;;8.90;99.90;;;;;;5085171;28;20047;-87
2022/11/17 11:22:06;;;;;;;6.30;2.67;;;9.00;99.90;;;;;;5094411;28;20040;-87
2022/11/17 11:24:44;;;;;;;7.32;3.17;;;9.00;99.90;;;;;;5094462;28;20108;-87
2022/11/17 11:27:31;;;;;;;6.15;2.78;;;9.00;99.90;;;;;;5111111;28;20047;-87
2022/11/17 11:30:11;;;;;;;9.60;3.28;;;9.10;99.90;;;;;;5094169;28;20123;-87
2022/11/17 11:33:19;;;;;;;6.55;3.20;;;9.10;99.90;;;;;;5092826;28;20043;-87
2022/11/17 11:36:05;;;;;;;8.00;3.13;;;9.10;99.90;;;;;;5111019;28;20123;-87
2022/11/17 11:38:33;;;;;;;6.50;3.03;;;9.10;99.90;;;;;;5098033;28;20114;-87
2022/11/17 11:41:36;;;;;;;6.40;3.00;;;9.10;99.90;;;;;;5073827;28;20047;-88
2022/11/17 11:44:05;;;;;;;6.57;2.90;;;9.20;99.90;;;;;;5088218;28;20578;-88
2022/11/17 11:46:43;;;;;;;7.15;3.13;;;9.20;99.90;;;;;;5074579;28;20059;-88
2022/11/17 11:49:31;;;;;;;6.70;2.78;;;9.30;99.90;;;;;;5093433;28;20040;-88
2022/11/17 11:51:58;;;;;;;7.15;3.22;;;9.30;99.90;;;;;;5110838;28;20043;-87
2022/11/17 11:54:37;;;;;;;7.35;3.30;;;9.40;99.90;;;;;;5103164;28;20092;-88
2022/11/17 11:57:03;;;;;;;8.35;3.33;;;9.40;99.90;;;;;;5111501;28;20048;-87
2022/11/17 11:59:49;;;;;;;6.95;3.25;;;9.40;99.90;;;;;;5110429;28;20042;-88
2022/11/17 12:02:37;;;;;;;6.85;2.83;;;9.50;99.90;;;;;;5093493;28;20442;-87
2022/11/17 12:05:23;;;;;;;7.30;3.63;;;9.50;99.90;;;;;;5110506;28;20442;-87
2022/11/17 12:08:02;;;;;;;8.10;3.45;;;9.50;99.90;;;;;;5109786;28;20415;-88
2022/11/17 12:10:38;;;;;;;8.02;3.28;;;9.60;99.90;;;;;;5093706;28;20039;-88
2022/11/17 12:13:04;;;;;;;8.85;3.53;;;9.60;99.90;;;;;;5109509;28;20596;-87
2022/11/17 12:15:34;;;;;;;8.10;3.53;;;9.70;99.90;;;;;;5092893;28;20070;-87
2022/11/17 12:18:12;;;;;;;6.13;2.60;;;9.70;99.90;;;;;;5092420;28;20568;-87
2022/11/17 12:20:37;;;;;;;6.75;3.22;;;9.80;99.90;;;;;;5109275;28;20054;-88
2022/11/17 12:23:02;;;;;;;6.57;2.60;;;9.80;99.90;;;;;;5092875;28;20134;-87
2022/11/17 12:25:32;;;;;;;7.53;2.70;;;9.90;99.90;;;;;;5096611;28;20519;-87
2022/11/17 12:27:57;;;;;;;7.13;2.42;;;10.00;99.90;;;;;;5074263;28;20071;-87
2022/11/17 12:30:32;;;;;;;8.55;2.50;;;10.00;99.90;;;;;;5074910;28;20164;-87
2022/11/17 12:32:59;;;;;;;6.32;2.20;;;10.10;99.90;;;;;;5087998;28;20036;-88
2022/11/17 12:35:31;;;;;;;7.72;2.45;;;10.10;99.90;;;;;;5089458;28;20028;-87
2022/11/17 12:38:15;;;;;;;5.32;1.95;;;10.20;99.90;;;;;;5073917;28;20038;-88
2022/11/17 12:40:45;;;;;;;6.28;2.13;;;10.30;99.90;;;;;;5112484;27;20048;-88
2022/11/17 12:43:13;;;;;;;7.28;2.03;;;10.30;99.90;;;;;;5083247;28;20059;-88
2022/11/17 12:45:54;;;;;;;9.95;2.00;;;10.40;99.90;;;;;;5089073;28;20075;-88
2022/11/17 12:48:22;;;;;;;9.27;2.05;;;10.50;99.90;;;;;;5094912;28;20040;-88
2022/11/17 12:51:05;;;;;;;7.45;2.55;;;10.50;99.90;;;;;;5104234;28;20443;-87
2022/11/17 12:54:01;;;;;;;5.78;2.25;;;10.50;99.90;;;;;;5109256;28;20058;-87
2022/11/17 12:56:46;;;;;;;8.50;2.70;;;10.60;99.90;;;;;;5108912;28;20122;-87
2022/11/17 12:59:28;;;;;;;8.25;2.00;;;10.60;99.90;;;;;;5092832;28;20032;-88
2022/11/17 13:02:18;;;;;;;4.97;1.83;;;10.60;99.90;;;;;;5109714;28;20450;-87
2022/11/17 13:04:55;;;;;;;5.53;1.95;;;10.70;99.90;;;;;;5109700;28;20434;-87
2022/11/17 13:07:25;;;;;;;7.13;1.67;;;10.70;99.90;;;;;;5092637;28;20509;-87
2022/11/17 13:09:58;;;;;;;7.05;2.13;;;10.70;99.90;;;;;;5092225;28;20405;-87
2022/11/17 13:12:25;;;;;;;6.70;2.38;;;10.70;99.90;;;;;;5092660;28;20032;-88
2022/11/17 13:14:56;;;;;;;8.15;3.03;;;10.80;99.90;;;;;;5085632;28;20038;-88
2022/11/17 13:17:26;;;;;;;7.50;2.85;;;10.80;99.90;;;;;;5072160;28;20036;-87
2022/11/17 13:20:01;;;;;;;8.23;3.00;;;10.80;99.90;;;;;;5089525;28;20509;-88
2022/11/17 13:22:27;;;;;;;7.15;2.92;;;10.80;99.90;;;;;;5097402;28;20068;-88
2022/11/17 13:24:53;;;;;;;6.00;2.05;;;10.80;99.90;;;;;;5080521;28;20066;-88
2022/11/17 13:27:25;;;;;;;6.05;2.10;;;10.80;99.90;;;;;;5087379;28;20040;-88
2022/11/17 13:30:10;;;;;;;7.13;2.30;;;10.80;99.90;;;;;;5089832;28;20047;-88
2022/11/17 13:32:39;;;;;;;5.53;1.83;;;10.80;99.90;;;;;;5100973;28;20036;-88
2022/11/17 13:35:18;;;;;;;9.27;2.03;;;10.90;99.90;;;;;;5108800;28;20031;-88
2022/11/17 13:37:44;;;;;;;9.63;3.40;;;10.90;99.90;;;;;;5092283;28;20104;-88
2022/11/17 13:40:20;;;;;;;5.40;2.17;;;10.90;99.90;;;;;;5109200;28;20114;-88